Flight Track Log - Related Links

Times and Time Zones

All times are in EDT time to prevent confusion due to time zone crossing. See the N511TA flight status page for this flight to view local times or setup timezone preferences in your user account.

Time Position Orientation Groundspeed Altitude Reporting Facility
EDT Latitude Longitude Course Direction KTS MPH feet Rate Location/Type
Wed 03:19:45 PM 38.9333 -77.5333 218° Southwest 159 183 2,300  Level Potomac TRACON
Wed 03:20:39 PM 38.9167 -77.5833 247° West 160 184 4,000 1,368 Climbing Potomac TRACON
Wed 03:21:39 PM 38.9167 -77.6500 270° West 181 208 4,900 614 Climbing Potomac TRACON
Wed 03:22:07 PM 38.9017 -77.6775 235° Southwest 202 232 4,900  Level Washington Center
Wed 03:23:05 PM 38.8403 -77.7239 210° Southwest 237 273 4,900 101 Level Washington Center
Wed 03:24:06 PM 38.7897 -77.7569 207° Southwest 226 260 5,100 1,041 Climbing Washington Center
Wed 03:25:00 PM 38.6482 -77.8352 218° Southwest  Level FlightAware Approximate
Wed 03:25:06 PM 38.7433 -77.7875 207° Southwest 196 226 7,000  Level Washington Center
Wed 03:26:07 PM 38.7008 -77.8208 211° Southwest 170 196 8,500 1,537 Climbing Washington Center
Wed 03:27:07 PM 38.6608 -77.8517 211° Southwest 171 197 10,100 1,627 Climbing Washington Center
Wed 03:28:05 PM 38.6267 -77.8878 220° Southwest 178 205 11,700 1,627 Climbing Washington Center
Wed 03:29:05 PM 38.5986 -77.9372 234° Southwest 178 205 13,300 1,438 Climbing Washington Center
Wed 03:30:06 PM 38.5683 -77.9894 233° Southwest 178 205 14,600 1,140 Climbing Washington Center
Wed 03:31:06 PM 38.5403 -78.0417 236° Southwest 178 205 15,600 645 Climbing Washington Center
Wed 03:32:07 PM 38.5144 -78.0858 233° Southwest 183 211 15,900 198 Climbing Washington Center
Wed 03:33:07 PM 38.4647 -78.1692 233° Southwest 218 251 16,000 508 Climbing Washington Center
Wed 03:34:05 PM 38.4236 -78.2367 232° Southwest 241 277 16,900 1,462 Climbing Washington Center
Wed 03:35:06 PM 38.3889 -78.2964 233° Southwest 234 269 18,900 1,672 Climbing Washington Center
Wed 03:36:07 PM 38.3586 -78.3481 233° Southwest 207 238 20,300 1,412 Climbing Washington Center
Wed 03:37:05 PM 38.3281 -78.3972 232° Southwest 193 222 21,700 1,424 Climbing Washington Center
Wed 03:38:05 PM 38.2997 -78.4492 235° Southwest 188 216 23,100 1,190 Climbing Washington Center
Wed 03:39:06 PM 38.2717 -78.4956 232° Southwest 183 211 24,100 984 Climbing Washington Center
Wed 03:40:07 PM 38.2453 -78.5450 236° Southwest 178 205 25,100 958 Climbing Washington Center
Wed 03:41:05 PM 38.2150 -78.5939 232° Southwest 178 205 26,000 454 Climbing Washington Center
Wed 03:42:06 PM 38.1822 -78.6508 234° Southwest 185 213 26,000  Level Washington Center
Wed 03:43:07 PM 38.1453 -78.7125 233° Southwest 210 242 26,000  Level Washington Center
Wed 03:44:07 PM 38.1061 -78.7742 231° Southwest 236 272 26,000  Level Washington Center
Wed 03:45:07 PM 38.0644 -78.8436 233° Southwest 244 281 26,000  Level Washington Center
Wed 03:46:05 PM 38.0253 -78.9106 233° Southwest 244 281 26,000  Level Washington Center
Wed 03:47:06 PM 37.9836 -78.9800 233° Southwest 244 281 26,000  Level Washington Center
Wed 03:48:06 PM 37.9378 -79.0542 232° Southwest 244 281 26,000  Level Washington Center
Wed 03:49:08 PM 37.8961 -79.1233 233° Southwest 244 281 26,000  Level Washington Center
Wed 03:50:05 PM 37.8625 -79.1953 239° Southwest 244 281 26,000  Level Washington Center
Wed 03:51:06 PM 37.8250 -79.2672 237° Southwest 244 281 26,000  Level Washington Center
Wed 03:52:07 PM 37.7939 -79.3314 238° Southwest 244 281 26,000  Level Washington Center
Wed 03:53:05 PM 37.7561 -79.4031 236° Southwest 244 281 26,000  Level Washington Center
Wed 03:54:06 PM 37.7225 -79.4750 239° Southwest 244 281 26,000  Level Washington Center
Wed 03:55:06 PM 37.6847 -79.5439 235° Southwest 244 281 26,000  Level Washington Center
Wed 03:56:07 PM 37.6467 -79.6231 239° Southwest 244 281 26,000  Level Washington Center
Wed 03:57:05 PM 37.6133 -79.6842 235° Southwest 244 281 26,000  Level Washington Center
Wed 03:58:06 PM 37.5753 -79.7608 238° Southwest 244 281 26,000  Level Washington Center
Wed 03:59:07 PM 37.5439 -79.8219 237° Southwest 244 281 26,000  Level Washington Center
Wed 04:00:07 PM 37.5078 -79.8986 239° Southwest 249 287 26,000  Level Washington Center
Wed 04:01:04 PM 37.4697 -79.9722 237° Southwest 244 281 26,000  Level Washington Center
Wed 04:02:05 PM 37.4336 -80.0433 237° Southwest 244 281 26,000  Level Washington Center
Wed 04:03:46 PM 37.3789 -80.1478 237° Southwest 241 277 26,000  Level Atlanta Center
Wed 04:04:46 PM 37.3397 -80.2200 236° Southwest 236 272 26,000  Level Atlanta Center
Wed 04:05:46 PM 37.3061 -80.2869 238° Southwest 241 277 26,000  Level Atlanta Center
Wed 04:06:46 PM 37.2708 -80.3592 238° Southwest 241 277 26,000  Level Atlanta Center
Wed 04:07:46 PM 37.2353 -80.4258 236° Southwest 241 277 26,000  Level Atlanta Center
Wed 04:08:46 PM 37.2017 -80.4872 236° Southwest 241 277 26,000  Level Atlanta Center
Wed 04:09:46 PM 37.1681 -80.5539 238° Southwest 241 277 26,000  Level Atlanta Center
Wed 04:10:46 PM 37.1328 -80.6258 238° Southwest 246 283 26,000  Level Atlanta Center
Wed 04:11:46 PM 37.0950 -80.6950 237° Southwest 246 283 26,000  Level Atlanta Center
Wed 04:12:00 PM 37.0848 -80.7175 237° Southwest  Level FlightAware Approximate
Wed 04:12:46 PM 37.0553 -80.7722 237° Southwest 246 283 26,000  Level Atlanta Center
Wed 04:13:46 PM 37.0178 -80.8439 237° Southwest 246 283 26,000  Level Atlanta Center
Wed 04:14:46 PM 36.9797 -80.9131 235° Southwest 246 283 26,000  Level Atlanta Center
Wed 04:15:46 PM 36.9442 -80.9844 238° Southwest 246 283 26,000  Level Atlanta Center
Wed 04:17:00 PM 36.8959 -81.0757 237° Southwest  Level FlightAware Approximate
Wed 04:17:46 PM 36.8722 -81.1197 237° Southwest 246 283 26,000  Level Atlanta Center
Wed 04:18:46 PM 36.8364 -81.1911 238° Southwest 246 283 26,000  Level Atlanta Center
Wed 04:19:46 PM 36.7983 -81.2625 236° Southwest 246 283 26,000  Level Atlanta Center
Wed 04:20:46 PM 36.7667 -81.3283 239° Southwest 241 277 26,000  Level Atlanta Center
Wed 04:21:46 PM 36.7264 -81.4022 236° Southwest 241 277 26,000  Level Atlanta Center
Wed 04:22:46 PM 36.6883 -81.4758 237° Southwest 251 289 26,000  Level Atlanta Center
Wed 04:23:46 PM 36.6464 -81.5550 237° Southwest 251 289 26,000  Level Atlanta Center
Wed 04:24:46 PM 36.6081 -81.6283 237° Southwest 251 289 26,000  Level Atlanta Center
Wed 04:25:46 PM 36.5678 -81.6994 235° Southwest 251 289 26,000  Level Atlanta Center
Wed 04:26:46 PM 36.5294 -81.7731 237° Southwest 251 289 26,000  Level Atlanta Center
Wed 04:27:46 PM 36.4911 -81.8439 236° Southwest 251 289 26,000  Level Atlanta Center
Wed 04:28:46 PM 36.4508 -81.9144 235° Southwest 251 289 26,000  Level Atlanta Center
Wed 04:29:46 PM 36.4125 -81.9878 237° Southwest 256 295 26,000  Level Atlanta Center
Wed 04:30:46 PM 36.3758 -82.0533 235° Southwest 261 300 26,000  Level Atlanta Center
Wed 04:31:46 PM 36.3375 -82.1264 237° Southwest 261 300 26,000  Level Atlanta Center
Wed 04:32:46 PM 36.2989 -82.1994 237° Southwest 261 300 26,000  Level Atlanta Center
Wed 04:33:46 PM 36.2583 -82.2725 235° Southwest 261 300 26,000  Level Atlanta Center
Wed 04:34:46 PM 36.2197 -82.3428 236° Southwest 256 295 26,000  Level Atlanta Center
Wed 04:35:46 PM 36.1811 -82.4156 237° Southwest 262 302 26,000  Level Atlanta Center
Wed 04:36:46 PM 36.1403 -82.4883 235° Southwest 262 302 26,000  Level Atlanta Center
Wed 04:37:46 PM 36.1036 -82.5583 237° Southwest 257 296 26,000  Level Atlanta Center
Wed 04:38:46 PM 36.0628 -82.6336 236° Southwest 257 296 26,000  Level Atlanta Center
Wed 04:39:46 PM 36.0239 -82.7064 237° Southwest 257 296 26,000  Level Atlanta Center
Wed 04:40:46 PM 35.9808 -82.7789 234° Southwest 257 296 26,000  Level Atlanta Center
Wed 04:41:46 PM 35.9419 -82.8511 236° Southwest 262 302 26,000  Level Atlanta Center
Wed 04:42:46 PM 35.9031 -82.9261 237° Southwest 262 302 26,000  Level Atlanta Center
Wed 04:43:46 PM 35.8578 -83.0011 233° Southwest 262 302 26,000  Level Atlanta Center
Wed 04:44:46 PM 35.8189 -83.0758 237° Southwest 257 296 26,000  Level Atlanta Center
Wed 04:45:46 PM 35.7797 -83.1456 235° Southwest 257 296 26,000  Level Atlanta Center
Wed 04:46:46 PM 35.7406 -83.2200 237° Southwest 262 302 26,000  Level Atlanta Center
Wed 04:47:46 PM 35.6992 -83.2919 235° Southwest 257 296 26,000  Level Atlanta Center
Wed 04:48:46 PM 35.6581 -83.3692 237° Southwest 262 302 26,000  Level Atlanta Center
Wed 04:50:00 PM 35.6070 -83.4549 234° Southwest  Level FlightAware Approximate
Wed 04:50:46 PM 35.5753 -83.5153 234° Southwest 262 302 26,000  Level Atlanta Center
Wed 04:51:46 PM 35.5339 -83.5869 235° Southwest 262 302 26,000  Level Atlanta Center
Wed 04:52:46 PM 35.4903 -83.6639 235° Southwest 262 302 26,000  Level Atlanta Center
Wed 04:53:46 PM 35.4489 -83.7353 235° Southwest 267 307 26,000  Level Atlanta Center
Wed 04:54:46 PM 35.4072 -83.8094 235° Southwest 267 307 26,000  Level Atlanta Center
Wed 04:55:46 PM 35.3656 -83.8808 234° Southwest 267 307 26,000  Level Atlanta Center
Wed 04:56:46 PM 35.3239 -83.9547 235° Southwest 267 307 26,000  Level Atlanta Center
Wed 04:57:46 PM 35.2822 -84.0286 235° Southwest 267 307 26,000  Level Atlanta Center
Wed 04:58:46 PM 35.2406 -84.1022 235° Southwest 267 307 26,000  Level Atlanta Center
Wed 04:59:46 PM 35.1986 -84.1761 235° Southwest 267 307 26,000  Level Atlanta Center
Wed 05:00:46 PM 35.1569 -84.2522 236° Southwest 267 307 26,000  Level Atlanta Center
Wed 05:01:46 PM 35.1128 -84.3256 234° Southwest 267 307 26,000  Level Atlanta Center
Wed 05:02:46 PM 35.0689 -84.4017 235° Southwest 267 307 26,000  Level Atlanta Center
Wed 05:03:46 PM 35.0311 -84.4675 235° Southwest 267 307 26,000  Level Atlanta Center
Wed 05:04:46 PM 34.9869 -84.5408 234° Southwest 267 307 26,000  Level Atlanta Center
Wed 05:05:46 PM 34.9428 -84.6164 235° Southwest 267 307 26,000  Level Atlanta Center
Wed 05:06:46 PM 34.9008 -84.6897 235° Southwest 267 307 26,000  Level Atlanta Center
Wed 05:07:46 PM 34.8586 -84.7653 236° Southwest 267 307 26,000  Level Atlanta Center
Wed 05:08:46 PM 34.8144 -84.8383 234° Southwest 267 307 26,000  Level Atlanta Center
Wed 05:09:46 PM 34.7722 -84.9111 235° Southwest 267 307 26,000  Level Atlanta Center
Wed 05:10:46 PM 34.7278 -84.9839 233° Southwest 272 313 26,000  Level Atlanta Center
Wed 05:11:46 PM 34.6853 -85.0592 236° Southwest 267 307 26,000  Level Atlanta Center
Wed 05:12:46 PM 34.6453 -85.1294 235° Southwest 267 307 26,000  Level Atlanta Center
Wed 05:13:46 PM 34.6006 -85.2022 233° Southwest 267 307 26,000  Level Atlanta Center
Wed 05:14:46 PM 34.5581 -85.2772 235° Southwest 272 313 26,000  Level Atlanta Center
Wed 05:15:46 PM 34.5136 -85.3472 232° Southwest 272 313 26,000  Level Atlanta Center
Wed 05:16:46 PM 34.4711 -85.4194 234° Southwest 267 307 26,000  Level Atlanta Center
Wed 05:17:46 PM 34.4306 -85.4919 236° Southwest 267 307 26,000  Level Atlanta Center
Wed 05:18:46 PM 34.3794 -85.5717 232° Southwest 267 307 26,000  Level Atlanta Center
Wed 05:19:46 PM 34.3453 -85.6414 239° Southwest 272 313 26,000  Level Atlanta Center
Wed 05:20:46 PM 34.2942 -85.7208 232° Southwest 272 313 26,000  Level Atlanta Center
Wed 05:21:46 PM 34.2514 -85.7956 235° Southwest 272 313 26,000  Level Atlanta Center
Wed 05:22:46 PM 34.2086 -85.8625 232° Southwest 272 313 26,000  Level Atlanta Center
Wed 05:23:46 PM 34.1658 -85.9342 234° Southwest 267 307 26,000  Level Atlanta Center
Wed 05:24:46 PM 34.1231 -86.0036 233° Southwest 267 307 26,000  Level Atlanta Center
Wed 05:25:46 PM 34.0781 -86.0778 234° Southwest 267 307 26,000  Level Atlanta Center
Wed 05:26:46 PM 34.0328 -86.1494 233° Southwest 267 307 26,000  Level Atlanta Center
Wed 05:27:46 PM 33.9878 -86.2233 234° Southwest 267 307 26,000  Level Atlanta Center
Wed 05:28:46 PM 33.9469 -86.2875 233° Southwest 267 307 26,000  Level Atlanta Center
Wed 05:29:46 PM 33.9039 -86.3589 234° Southwest 267 307 26,000  Level Atlanta Center
Wed 05:30:46 PM 33.8608 -86.4353 236° Southwest 273 314 26,000  Level Atlanta Center
Wed 05:31:46 PM 33.8175 -86.5067 234° Southwest 273 314 26,000  Level Atlanta Center
Wed 05:32:46 PM 33.7722 -86.5778 233° Southwest 273 314 26,000  Level Atlanta Center
Wed 05:33:46 PM 33.7269 -86.6514 234° Southwest 273 314 26,000  Level Atlanta Center
Wed 05:34:46 PM 33.6817 -86.7225 233° Southwest 273 314 26,000  Level Atlanta Center
Wed 05:35:46 PM 33.6381 -86.7958 234° Southwest 273 314 26,000  Level Atlanta Center
Wed 05:36:46 PM 33.5947 -86.8669 234° Southwest 273 314 26,000  Level Atlanta Center
Wed 05:37:46 PM 33.5494 -86.9378 233° Southwest 273 314 26,000  Level Atlanta Center
Wed 05:38:46 PM 33.5058 -87.0083 233° Southwest 273 314 26,000  Level Atlanta Center
Wed 05:39:46 PM 33.4603 -87.0817 233° Southwest 273 314 26,000  Level Atlanta Center
Wed 05:40:46 PM 33.4169 -87.1497 233° Southwest 268 308 26,000  Level Atlanta Center
Wed 05:41:46 PM 33.3733 -87.2228 234° Southwest 268 308 26,000  Level Atlanta Center
Wed 05:42:46 PM 33.3275 -87.2933 232° Southwest 268 308 26,000  Level Atlanta Center
Wed 05:43:46 PM 33.2839 -87.3636 233° Southwest 268 308 26,000  Level Atlanta Center
Wed 05:44:46 PM 33.2381 -87.4364 233° Southwest 268 308 26,000  Level Atlanta Center
Wed 05:45:46 PM 33.1944 -87.5092 234° Southwest 268 308 26,000  Level Atlanta Center
Wed 05:46:46 PM 33.1486 -87.5792 232° Southwest 268 308 26,000  Level Atlanta Center
Wed 05:47:46 PM 33.1047 -87.6519 234° Southwest 268 308 26,000  Level Atlanta Center
Wed 05:48:56 PM 33.0514 -87.7350 233° Southwest 282 325 26,000  Level Memphis Center
Wed 05:49:56 PM 33.0047 -87.8083 233° Southwest 282 325 26,000  Level Memphis Center
Wed 05:50:56 PM 32.9603 -87.8814 234° Southwest 282 325 26,000  Level Memphis Center
Wed 05:51:56 PM 32.9200 -87.9517 236° Southwest 276 318 26,000  Level Memphis Center
Wed 05:52:56 PM 32.8733 -88.0222 232° Southwest 276 318 26,000  Level Memphis Center
Wed 05:53:56 PM 32.8286 -88.0928 233° Southwest 276 318 26,000  Level Memphis Center
Wed 05:54:56 PM 32.7819 -88.1631 232° Southwest 276 318 26,000  Level Memphis Center
Wed 05:55:56 PM 32.7394 -88.2333 234° Southwest 276 318 26,000  Level Memphis Center
Wed 05:56:56 PM 32.6883 -88.3111 232° Southwest 279 321 26,000 -50 Level Memphis Center
Wed 05:57:56 PM 32.6517 -88.3686 233° Southwest 279 321 25,900  Descending Memphis Center
Wed 05:58:56 PM 32.5967 -88.4536 232° Southwest 279 321 26,000 50 Climbing Memphis Center
Wed 05:59:56 PM 32.5497 -88.5236 232° Southwest 279 321 26,000  Level Memphis Center
Wed 06:00:56 PM 32.5050 -88.5936 233° Southwest 279 321 26,000  Level Memphis Center
Wed 06:01:56 PM 32.4600 -88.6658 234° Southwest 279 321 26,000  Level Memphis Center
Wed 06:02:56 PM 32.4150 -88.7356 233° Southwest 279 321 26,000  Level Memphis Center
Wed 06:03:56 PM 32.3700 -88.8053 233° Southwest 279 321 26,000  Level Memphis Center
Wed 06:04:56 PM 32.3208 -88.8775 231° Southwest 279 321 26,000  Level Memphis Center
Wed 06:05:56 PM 32.2736 -88.9494 232° Southwest 279 321 26,000  Level Memphis Center
Wed 06:06:56 PM 32.2264 -89.0214 232° Southwest 279 321 26,000  Level Memphis Center
Wed 06:07:56 PM 32.1789 -89.0908 231° Southwest 279 321 26,000  Level Memphis Center
Wed 06:08:56 PM 32.1339 -89.1625 233° Southwest 279 321 26,000  Level Memphis Center
Wed 06:09:56 PM 32.0864 -89.2319 231° Southwest 285 328 26,000  Level Memphis Center
Wed 06:10:56 PM 32.0392 -89.3036 232° Southwest 280 322 26,000  Level Memphis Center
Wed 06:11:56 PM 31.9917 -89.3753 232° Southwest 280 322 26,000  Level Memphis Center
Wed 06:12:56 PM 31.9442 -89.4467 232° Southwest 280 322 26,000  Level Memphis Center
Wed 06:13:56 PM 31.8986 -89.5181 233° Southwest 280 322 26,000  Level Memphis Center
Wed 06:15:26 PM 31.8358 -89.6106 231° Southwest 273 314 26,000  Level Houston Center
Wed 06:16:28 PM 31.7878 -89.6839 232° Southwest 275 316 26,000  Level Houston Center
Wed 06:17:30 PM 31.7406 -89.7522 231° Southwest 272 313 26,000  Level Houston Center
Wed 06:18:32 PM 31.6853 -89.8367 232° Southwest 273 314 26,000  Level Houston Center
Wed 06:19:34 PM 31.6397 -89.9053 232° Southwest 270 311 26,000  Level Houston Center
Wed 06:20:36 PM 31.5925 -89.9742 231° Southwest 274 315 26,000  Level Houston Center
Wed 06:21:38 PM 31.5475 -90.0425 232° Southwest 268 308 26,000  Level Houston Center
Wed 06:22:40 PM 31.5006 -90.1103 231° Southwest 269 310 26,000  Level Houston Center
Wed 06:23:42 PM 31.4453 -90.1928 232° Southwest 270 311 26,000  Level Houston Center
Wed 06:24:45 PM 31.4003 -90.2600 232° Southwest 266 306 26,000  Level Houston Center
Wed 06:25:47 PM 31.3550 -90.3275 232° Southwest 266 306 26,000  Level Houston Center
Wed 06:26:49 PM 31.3089 -90.3936 231° Southwest 264 304 26,000  Level Houston Center
Wed 06:27:51 PM 31.2639 -90.4611 232° Southwest 266 306 26,000 -339 Level Houston Center
Wed 06:28:53 PM 31.2181 -90.5303 232° Southwest 270 311 25,300 -774 Descending Houston Center
Wed 06:29:55 PM 31.1581 -90.6167 231° Southwest 284 327 24,400 -629 Descending Houston Center
Wed 06:30:57 PM 31.1092 -90.6878 231° Southwest 285 328 24,000 -629 Descending Houston Center
Wed 06:31:59 PM 31.0606 -90.7583 231° Southwest 282 325 23,100 -823 Descending Houston Center
Wed 06:33:01 PM 31.0122 -90.8275 231° Southwest 278 320 22,300 -919 Descending Houston Center
Wed 06:34:03 PM 30.9653 -90.8969 232° Southwest 276 318 21,200 -1,152 Descending Houston Center
Wed 06:35:06 PM 30.9078 -90.9806 231° Southwest 278 320 19,900 -1,200 Descending Houston Center
Wed 06:36:08 PM 30.8597 -91.0492 231° Southwest 275 316 18,700 -1,113 Descending Houston Center
Wed 06:37:10 PM 30.8156 -91.1119 231° Southwest 276 318 17,600 -1,403 Descending Houston Center
Wed 06:38:12 PM 30.7581 -91.1969 232° Southwest 277 319 15,800 -1,488 Descending Houston Center
Wed 06:39:15 PM 30.7150 -91.2589 231° Southwest 279 321 14,500 -1,597 Descending Houston Center
Wed 06:40:16 PM 30.6564 -91.3428 231° Southwest 279 321 12,500 -1,707 Descending Houston Center
Wed 06:41:18 PM 30.6089 -91.4139 232° Southwest 279 321 11,000 -762 Descending Houston Center
Wed 06:42:22 PM 30.5625 -91.4747 228° Southwest 275 316 10,900 -48 Descending Houston Center
Wed 06:43:22 PM 30.5200 -91.5364 231° Southwest 257 296 10,900 -732 Level Houston Center
Wed 06:44:25 PM 30.4692 -91.6125 232° Southwest 249 287 9,400 -1,344 Descending Houston Center
Wed 06:45:27 PM 30.4303 -91.6672 231° Southwest 253 291 8,100 -1,452 Descending Houston Center
Wed 06:46:29 PM 30.3767 -91.7411 230° Southwest 262 302 6,400 -1,548 Descending Houston Center
Wed 06:47:31 PM 30.3344 -91.8039 232° Southwest 250 288 4,900 -1,452 Descending Houston Center
Wed 06:48:33 PM 30.2981 -91.8678 237° Southwest 243 280 3,400 -871 Descending Houston Center
Wed 06:49:35 PM 30.2653 -91.9317 239° Southwest 242 278 3,100 -290 Descending Houston Center
Wed 06:51:00 PM 30.2000 -91.9833 235° Southwest  Level FlightAware Approximate
Wed 06:58:00 PM 30.2050 -91.9877 235° Southwest  Level Estimated
Wed 06:59:00 PM 30.2000 -91.9833 235° Southwest  Level FlightAware Approximate
Wed 07:00:00 PM 30.2050 -91.9877 235° Southwest  Level Estimated

Login

Don't have an account? Register now (free) for customized features, flight alerts, and more!